createdAt,value
2023-01-15T00:00:28.660Z,7.98
2023-01-15T00:01:28.929Z,7.97
2023-01-15T00:02:28.688Z,8.00
2023-01-15T00:03:28.430Z,7.98
2023-01-15T00:04:28.669Z,7.98
2023-01-15T00:05:28.422Z,8.00
2023-01-15T00:06:28.970Z,7.98
2023-01-15T00:07:49.138Z,7.98
2023-01-15T00:08:28.574Z,7.98
2023-01-15T00:09:28.986Z,7.98
2023-01-15T00:10:28.721Z,7.97
2023-01-15T00:11:28.470Z,7.97
2023-01-15T00:12:28.988Z,7.97
2023-01-15T00:13:29.155Z,7.97
2023-01-15T00:14:29.433Z,7.95
2023-01-15T00:15:30.192Z,7.95
2023-01-15T00:16:28.513Z,7.95
2023-01-15T00:17:50.294Z,7.97
2023-01-15T00:18:28.546Z,7.97
2023-01-15T00:19:29.155Z,7.93
2023-01-15T00:20:28.710Z,7.95
2023-01-15T00:21:28.327Z,7.95
2023-01-15T00:22:28.595Z,7.92
2023-01-15T00:23:28.355Z,7.92
2023-01-15T00:24:28.847Z,7.92
2023-01-15T00:25:28.402Z,7.89
2023-01-15T00:26:28.659Z,7.89
2023-01-15T00:27:49.871Z,7.89
2023-01-15T00:28:28.198Z,7.85
2023-01-15T00:29:28.430Z,7.86
2023-01-15T00:30:28.215Z,7.86
2023-01-15T00:31:28.520Z,7.85
2023-01-15T00:32:28.230Z,7.83
2023-01-15T00:33:28.479Z,7.85
2023-01-15T00:34:28.244Z,7.86
2023-01-15T00:35:28.480Z,7.83
2023-01-15T00:36:28.275Z,7.85
2023-01-15T00:37:49.194Z,7.86
2023-01-15T00:38:28.344Z,7.86
2023-01-15T00:39:28.076Z,7.85
2023-01-15T00:40:28.373Z,7.83
2023-01-15T00:41:28.290Z,7.86
2023-01-15T00:42:28.883Z,7.85
2023-01-15T00:43:28.117Z,7.90
2023-01-15T00:44:28.392Z,7.90
2023-01-15T00:45:28.153Z,7.90
2023-01-15T00:46:29.067Z,7.90
2023-01-15T00:47:49.592Z,7.90
2023-01-15T00:48:28.408Z,7.87
2023-01-15T00:49:28.951Z,7.86
2023-01-15T00:50:28.428Z,7.87
2023-01-15T00:51:28.166Z,7.86
2023-01-15T00:52:27.955Z,7.85
2023-01-15T00:53:28.211Z,7.86
2023-01-15T00:54:28.298Z,7.83
2023-01-15T00:55:28.208Z,7.86
2023-01-15T00:56:27.973Z,7.86
2023-01-15T00:57:49.725Z,7.87
2023-01-15T00:58:28.023Z,7.89
2023-01-15T00:59:28.312Z,7.89
2023-01-15T01:00:28.192Z,7.87
2023-01-15T01:01:27.941Z,7.85
2023-01-15T01:02:28.127Z,7.83
2023-01-15T01:03:27.820Z,7.85
2023-01-15T01:04:28.069Z,7.85
2023-01-15T01:05:27.818Z,7.83
2023-01-15T01:06:29.089Z,7.83
2023-01-15T01:07:49.332Z,7.85
2023-01-15T01:08:28.136Z,7.86
2023-01-15T01:09:27.879Z,7.86
2023-01-15T01:10:28.168Z,7.87
2023-01-15T01:11:27.934Z,7.89
2023-01-15T01:12:28.183Z,7.87
2023-01-15T01:13:27.928Z,7.87
2023-01-15T01:14:27.689Z,7.87
2023-01-15T01:15:27.932Z,7.89
2023-01-15T01:16:28.214Z,7.90
2023-01-15T01:17:49.450Z,7.90
2023-01-15T01:18:27.760Z,7.87
2023-01-15T01:19:27.990Z,7.90
2023-01-15T01:20:27.757Z,7.92
2023-01-15T01:21:28.023Z,7.90
2023-01-15T01:22:27.775Z,7.90
2023-01-15T01:23:28.035Z,7.93
2023-01-15T01:24:27.791Z,7.93
2023-01-15T01:25:28.056Z,7.92
2023-01-15T01:26:27.818Z,7.89
2023-01-15T01:27:48.703Z,7.90
2023-01-15T01:28:27.866Z,7.90
2023-01-15T01:29:27.604Z,7.90
2023-01-15T01:30:27.860Z,7.90
2023-01-15T01:31:27.727Z,7.90
2023-01-15T01:32:27.861Z,7.89
2023-01-15T01:33:27.600Z,7.89
2023-01-15T01:34:27.877Z,7.93
2023-01-15T01:35:27.632Z,7.93
2023-01-15T01:36:27.879Z,7.92
2023-01-15T01:37:49.126Z,7.90
2023-01-15T01:38:27.916Z,7.90
2023-01-15T01:39:27.828Z,7.90
2023-01-15T01:40:27.427Z,7.92
2023-01-15T01:41:27.725Z,7.89
2023-01-15T01:42:28.137Z,7.89
2023-01-15T01:43:27.704Z,7.89
2023-01-15T01:44:27.441Z,7.92
2023-01-15T01:45:27.906Z,7.92
2023-01-15T01:46:27.466Z,7.92
2023-01-15T01:47:49.261Z,7.95
2023-01-15T01:48:27.544Z,7.93
2023-01-15T01:49:27.880Z,7.92
2023-01-15T01:50:29.044Z,7.90
2023-01-15T01:51:27.382Z,7.90
2023-01-15T01:52:28.562Z,7.89
2023-01-15T01:53:27.391Z,7.89
2023-01-15T01:54:27.611Z,7.89
2023-01-15T01:55:27.358Z,7.87
2023-01-15T01:56:27.635Z,7.86
2023-01-15T01:57:47.429Z,7.87
2023-01-15T01:58:27.651Z,7.89
2023-01-15T01:59:27.442Z,7.87
2023-01-15T02:00:27.661Z,7.87
2023-01-15T02:01:27.485Z,7.86
2023-01-15T02:02:27.755Z,7.85
2023-01-15T02:03:27.429Z,7.85
2023-01-15T02:04:28.633Z,7.85
2023-01-15T02:05:27.451Z,7.83
2023-01-15T02:06:27.182Z,7.85
2023-01-15T02:07:48.944Z,7.85
2023-01-15T02:08:27.230Z,7.83
2023-01-15T02:09:27.507Z,7.83
2023-01-15T02:10:27.242Z,7.85
2023-01-15T02:11:27.542Z,7.83
2023-01-15T02:12:28.693Z,7.83
2023-01-15T02:13:27.520Z,7.82
2023-01-15T02:14:27.266Z,7.83
2023-01-15T02:15:28.205Z,7.82
2023-01-15T02:16:27.281Z,7.83
2023-01-15T02:17:49.031Z,7.82
2023-01-15T02:18:27.340Z,7.82
2023-01-15T02:19:27.090Z,7.80
2023-01-15T02:20:27.335Z,7.83
2023-01-15T02:21:27.113Z,7.83
2023-01-15T02:22:27.376Z,7.83
2023-01-15T02:23:27.121Z,7.85
2023-01-15T02:24:27.361Z,7.85
2023-01-15T02:25:27.121Z,7.83
2023-01-15T02:26:28.077Z,7.82
2023-01-15T02:27:48.637Z,7.85
2023-01-15T02:28:26.971Z,7.82
2023-01-15T02:29:27.226Z,7.85
2023-01-15T02:30:27.004Z,7.82
2023-01-15T02:31:27.319Z,7.82
2023-01-15T02:32:27.006Z,7.83
2023-01-15T02:33:27.271Z,7.85
2023-01-15T02:34:27.014Z,7.82
2023-01-15T02:35:27.260Z,7.82
2023-01-15T02:36:26.995Z,7.82
2023-01-15T02:37:47.739Z,7.85
2023-01-15T02:38:27.049Z,7.86
2023-01-15T02:39:27.313Z,7.86
2023-01-15T02:40:27.044Z,7.86
2023-01-15T02:41:26.836Z,7.83
2023-01-15T02:42:28.539Z,7.85
2023-01-15T02:43:26.873Z,7.85
2023-01-15T02:44:27.123Z,7.85
2023-01-15T02:45:27.154Z,7.85
2023-01-15T02:46:27.120Z,7.83
2023-01-15T02:47:47.585Z,7.83
2023-01-15T02:48:27.189Z,7.82
2023-01-15T02:49:26.918Z,7.83
2023-01-15T02:50:27.164Z,7.80
2023-01-15T02:51:26.949Z,7.82
2023-01-15T02:52:26.677Z,7.82
2023-01-15T02:53:26.943Z,7.82
2023-01-15T02:54:26.692Z,7.80
2023-01-15T02:55:26.939Z,7.79
2023-01-15T02:56:26.691Z,7.79
2023-01-15T02:57:47.655Z,7.80
2023-01-15T02:58:26.780Z,7.79
2023-01-15T02:59:27.078Z,7.77
2023-01-15T03:00:26.801Z,7.77
2023-01-15T03:01:27.139Z,7.77
2023-01-15T03:02:26.877Z,7.79
2023-01-15T03:03:27.064Z,7.77
2023-01-15T03:04:26.812Z,7.74
2023-01-15T03:05:26.567Z,7.75
2023-01-15T03:06:26.812Z,7.75
2023-01-15T03:07:47.744Z,7.74
2023-01-15T03:08:26.932Z,7.72
2023-01-15T03:09:26.689Z,7.69
2023-01-15T03:10:26.920Z,7.71
2023-01-15T03:11:26.695Z,7.72
2023-01-15T03:12:26.944Z,7.72
2023-01-15T03:13:26.715Z,7.71
2023-01-15T03:14:26.452Z,7.72
2023-01-15T03:15:26.740Z,7.71
2023-01-15T03:16:27.188Z,7.72
2023-01-15T03:17:48.332Z,7.72
2023-01-15T03:18:26.658Z,7.71
2023-01-15T03:19:26.959Z,7.69
2023-01-15T03:20:26.749Z,7.69
2023-01-15T03:21:26.551Z,7.69
2023-01-15T03:22:26.769Z,7.69
2023-01-15T03:23:26.536Z,7.71
2023-01-15T03:24:26.841Z,7.69
2023-01-15T03:25:26.610Z,7.69
2023-01-15T03:26:26.428Z,7.68
2023-01-15T03:27:48.164Z,7.68
2023-01-15T03:28:26.481Z,7.64
2023-01-15T03:29:26.787Z,7.64
2023-01-15T03:30:26.602Z,7.64
2023-01-15T03:31:26.871Z,7.63
2023-01-15T03:32:26.680Z,7.63
2023-01-15T03:33:26.461Z,7.63
2023-01-15T03:34:26.750Z,7.64
2023-01-15T03:35:26.535Z,7.63
2023-01-15T03:36:26.282Z,7.63
2023-01-15T03:37:47.573Z,7.63
2023-01-15T03:38:26.421Z,7.61
2023-01-15T03:39:26.717Z,7.61
2023-01-15T03:40:26.479Z,7.61
2023-01-15T03:41:26.290Z,7.60
2023-01-15T03:42:26.533Z,7.60
2023-01-15T03:43:26.333Z,7.63
2023-01-15T03:44:26.602Z,7.63
2023-01-15T03:45:26.382Z,7.61
2023-01-15T03:46:26.614Z,7.58
2023-01-15T03:47:47.264Z,7.60
2023-01-15T03:48:26.242Z,7.60
2023-01-15T03:49:26.524Z,7.60
2023-01-15T03:50:26.269Z,7.61
2023-01-15T03:51:26.592Z,7.61
2023-01-15T03:52:26.367Z,7.60
2023-01-15T03:53:26.173Z,7.60
2023-01-15T03:54:26.435Z,7.58
2023-01-15T03:55:26.279Z,7.58
2023-01-15T03:56:26.527Z,7.58
2023-01-15T03:57:47.792Z,7.57
2023-01-15T03:58:26.093Z,7.58
2023-01-15T03:59:26.568Z,7.58
2023-01-15T04:00:26.106Z,7.58
2023-01-15T04:01:26.403Z,7.57
2023-01-15T04:02:26.091Z,7.58
2023-01-15T04:03:26.373Z,7.58
2023-01-15T04:04:26.162Z,7.60
2023-01-15T04:05:26.386Z,7.60
2023-01-15T04:06:26.143Z,7.61
2023-01-15T04:07:47.931Z,7.61
2023-01-15T04:08:26.233Z,7.61
2023-01-15T04:09:26.004Z,7.61
2023-01-15T04:10:26.241Z,7.61
2023-01-15T04:11:26.024Z,7.61
2023-01-15T04:12:26.244Z,7.60
2023-01-15T04:13:26.026Z,7.61
2023-01-15T04:14:26.257Z,7.61
2023-01-15T04:15:26.123Z,7.63
2023-01-15T04:16:26.315Z,7.63
2023-01-15T04:17:47.587Z,7.68
2023-01-15T04:18:25.866Z,7.67
2023-01-15T04:19:26.127Z,7.68
2023-01-15T04:20:25.858Z,7.68
2023-01-15T04:21:27.115Z,7.69
2023-01-15T04:22:25.858Z,7.68
2023-01-15T04:23:26.132Z,7.69
2023-01-15T04:24:25.855Z,7.69
2023-01-15T04:25:26.133Z,7.71
2023-01-15T04:26:25.879Z,7.69
2023-01-15T04:27:46.797Z,7.75
2023-01-15T04:28:25.934Z,7.75
2023-01-15T04:29:25.696Z,7.75
2023-01-15T04:30:25.940Z,7.77
2023-01-15T04:31:25.696Z,7.77
2023-01-15T04:32:25.945Z,7.75
2023-01-15T04:33:25.708Z,7.75
2023-01-15T04:34:25.947Z,7.79
2023-01-15T04:35:25.711Z,7.79
2023-01-15T04:36:25.945Z,7.79
2023-01-15T04:37:47.219Z,7.79
2023-01-15T04:38:26.018Z,7.79
2023-01-15T04:39:25.778Z,7.77
2023-01-15T04:40:26.017Z,7.77
2023-01-15T04:41:25.810Z,7.75
2023-01-15T04:42:27.011Z,7.74
2023-01-15T04:43:25.844Z,7.75
2023-01-15T04:44:25.580Z,7.75
2023-01-15T04:45:25.829Z,7.75
2023-01-15T04:46:25.642Z,7.74
2023-01-15T04:47:47.338Z,7.74
2023-01-15T04:48:25.675Z,7.74
2023-01-15T04:49:25.948Z,7.72
2023-01-15T04:50:25.704Z,7.72
2023-01-15T04:51:25.954Z,7.72
2023-01-15T04:52:25.701Z,7.72
2023-01-15T04:53:25.454Z,7.71
2023-01-15T04:54:25.698Z,7.71
2023-01-15T04:55:25.462Z,7.71
2023-01-15T04:56:25.713Z,7.71
2023-01-15T04:57:46.316Z,7.69
2023-01-15T04:58:25.773Z,7.71
2023-01-15T04:59:25.528Z,7.69
2023-01-15T05:00:25.751Z,7.68
2023-01-15T05:01:25.581Z,7.68
2023-01-15T05:02:25.857Z,7.67
2023-01-15T05:03:25.514Z,7.67
2023-01-15T05:04:25.868Z,7.67
2023-01-15T05:05:25.513Z,7.67
2023-01-15T05:06:25.755Z,7.64
2023-01-15T05:07:47.027Z,7.63
2023-01-15T05:08:25.323Z,7.63
2023-01-15T05:09:25.618Z,7.63
2023-01-15T05:10:25.304Z,7.64
2023-01-15T05:11:25.599Z,7.64
2023-01-15T05:12:25.349Z,7.68
2023-01-15T05:13:25.613Z,7.64
2023-01-15T05:14:25.368Z,7.68
2023-01-15T05:15:25.649Z,7.68
2023-01-15T05:16:25.393Z,7.72
2023-01-15T05:17:47.161Z,7.69
2023-01-15T05:18:25.469Z,7.69
2023-01-15T05:19:25.255Z,7.68
2023-01-15T05:20:25.485Z,7.68
2023-01-15T05:21:25.228Z,7.68
2023-01-15T05:22:25.466Z,7.68
2023-01-15T05:23:25.233Z,7.68
2023-01-15T05:24:25.473Z,7.68
2023-01-15T05:25:25.236Z,7.68
2023-01-15T05:26:25.497Z,7.69
2023-01-15T05:27:45.847Z,7.69
2023-01-15T05:28:25.531Z,7.69
2023-01-15T05:29:25.279Z,7.68
2023-01-15T05:30:25.523Z,7.68
2023-01-15T05:31:25.325Z,7.67
2023-01-15T05:32:25.518Z,7.67
2023-01-15T05:33:25.297Z,7.68
2023-01-15T05:34:25.037Z,7.67
2023-01-15T05:35:25.293Z,7.68
2023-01-15T05:36:25.129Z,7.68
2023-01-15T05:37:46.811Z,7.68
2023-01-15T05:38:25.101Z,7.69
2023-01-15T05:39:25.353Z,7.68
2023-01-15T05:40:25.131Z,7.69
2023-01-15T05:41:25.368Z,7.69
2023-01-15T05:42:25.822Z,7.68
2023-01-15T05:43:25.371Z,7.68
2023-01-15T05:44:25.338Z,7.69
2023-01-15T05:45:25.368Z,7.71
2023-01-15T05:46:25.178Z,7.71
2023-01-15T05:47:46.887Z,7.71
2023-01-15T05:48:25.213Z,7.69
2023-01-15T05:49:24.940Z,7.69
2023-01-15T05:50:25.902Z,7.67
2023-01-15T05:51:24.943Z,7.68
2023-01-15T05:52:25.211Z,7.68
2023-01-15T05:53:24.949Z,7.67
2023-01-15T05:54:26.696Z,7.69
2023-01-15T05:55:25.030Z,7.68
2023-01-15T05:56:25.229Z,7.67
2023-01-15T05:57:46.472Z,7.67
2023-01-15T05:58:24.906Z,7.64
2023-01-15T05:59:25.135Z,7.67
2023-01-15T06:00:24.896Z,7.67
2023-01-15T06:01:25.221Z,7.63
2023-01-15T06:02:24.945Z,7.61
2023-01-15T06:03:26.606Z,7.63
2023-01-15T06:04:24.991Z,7.61
2023-01-15T06:05:25.145Z,7.61
2023-01-15T06:06:26.380Z,7.61
2023-01-15T06:07:45.867Z,7.60
2023-01-15T06:08:25.037Z,7.58
2023-01-15T06:09:24.777Z,7.58
2023-01-15T06:10:25.043Z,7.57
2023-01-15T06:11:24.777Z,7.55
2023-01-15T06:12:25.077Z,7.55
2023-01-15T06:13:25.364Z,7.52
2023-01-15T06:14:25.069Z,7.50
2023-01-15T06:15:24.820Z,7.49
2023-01-15T06:16:25.070Z,7.49
2023-01-15T06:17:46.326Z,7.46
2023-01-15T06:18:25.549Z,7.48
2023-01-15T06:19:24.871Z,7.48
2023-01-15T06:20:24.625Z,7.46
2023-01-15T06:21:24.895Z,7.45
2023-01-15T06:22:24.649Z,7.45
2023-01-15T06:23:24.888Z,7.42
2023-01-15T06:24:24.656Z,7.42
2023-01-15T06:25:24.907Z,7.42
2023-01-15T06:26:24.693Z,7.39
2023-01-15T06:27:46.443Z,7.39
2023-01-15T06:28:24.734Z,7.39
2023-01-15T06:29:24.460Z,7.34
2023-01-15T06:30:26.169Z,7.34
2023-01-15T06:31:24.582Z,7.32
2023-01-15T06:32:24.773Z,7.32
2023-01-15T06:33:24.509Z,7.32
2023-01-15T06:34:24.771Z,7.31
2023-01-15T06:35:24.507Z,7.31
2023-01-15T06:36:24.783Z,7.30
2023-01-15T06:37:45.373Z,7.30
2023-01-15T06:38:24.823Z,7.30
2023-01-15T06:39:24.582Z,7.28
2023-01-15T06:40:24.831Z,7.28
2023-01-15T06:41:24.580Z,7.30
2023-01-15T06:42:25.291Z,7.28
2023-01-15T06:43:24.614Z,7.30
2023-01-15T06:44:24.394Z,7.28
2023-01-15T06:45:24.629Z,7.30
2023-01-15T06:46:24.429Z,7.30
2023-01-15T06:47:46.131Z,7.30
2023-01-15T06:48:24.453Z,7.30
2023-01-15T06:49:25.375Z,7.27
2023-01-15T06:50:24.454Z,7.27
2023-01-15T06:51:24.695Z,7.28
2023-01-15T06:52:24.661Z,7.28
2023-01-15T06:53:24.716Z,7.27
2023-01-15T06:54:24.685Z,7.27
2023-01-15T06:55:24.230Z,7.28
2023-01-15T06:56:24.500Z,7.28
2023-01-15T06:57:45.794Z,7.30
2023-01-15T06:58:24.587Z,7.34
2023-01-15T06:59:24.340Z,7.31
2023-01-15T07:00:24.595Z,7.32
2023-01-15T07:01:24.436Z,7.32
2023-01-15T07:02:24.608Z,7.32
2023-01-15T07:03:24.363Z,7.34
2023-01-15T07:04:24.616Z,7.32
2023-01-15T07:05:24.364Z,7.32
2023-01-15T07:06:26.426Z,7.31
2023-01-15T07:07:45.380Z,7.30
2023-01-15T07:08:24.200Z,7.30
2023-01-15T07:09:24.431Z,7.31
2023-01-15T07:10:24.202Z,7.30
2023-01-15T07:11:24.444Z,7.27
2023-01-15T07:12:24.221Z,7.25
2023-01-15T07:13:24.468Z,7.25
2023-01-15T07:14:24.256Z,7.25
2023-01-15T07:15:24.465Z,7.23
2023-01-15T07:16:24.339Z,7.25
2023-01-15T07:17:44.903Z,7.24
2023-01-15T07:18:24.337Z,7.24
2023-01-15T07:19:24.059Z,7.25
2023-01-15T07:20:24.326Z,7.25
2023-01-15T07:21:24.066Z,7.24
2023-01-15T07:22:24.350Z,7.23
2023-01-15T07:23:24.089Z,7.24
2023-01-15T07:24:24.338Z,7.23
2023-01-15T07:25:24.092Z,7.24
2023-01-15T07:26:24.330Z,7.24
2023-01-15T07:27:45.640Z,7.23
2023-01-15T07:28:23.966Z,7.21
2023-01-15T07:29:24.219Z,7.20
2023-01-15T07:30:25.391Z,7.20
2023-01-15T07:31:24.233Z,7.16
2023-01-15T07:32:23.958Z,7.17
2023-01-15T07:33:24.203Z,7.15
2023-01-15T07:34:23.985Z,7.13
2023-01-15T07:35:24.229Z,7.12
2023-01-15T07:36:23.959Z,7.10
2023-01-15T07:37:45.688Z,7.07
2023-01-15T07:38:23.995Z,7.07
2023-01-15T07:39:24.894Z,7.06
2023-01-15T07:40:24.020Z,7.05
2023-01-15T07:41:25.207Z,7.02
2023-01-15T07:42:25.512Z,6.97
2023-01-15T07:43:23.795Z,6.95
2023-01-15T07:44:25.499Z,6.92
2023-01-15T07:45:24.417Z,6.92
2023-01-15T07:46:24.113Z,6.91
2023-01-15T07:47:45.379Z,6.91
2023-01-15T07:48:25.255Z,6.88
2023-01-15T07:49:24.021Z,6.89
2023-01-15T07:50:23.816Z,6.85
2023-01-15T07:51:24.028Z,6.85
2023-01-15T07:52:24.148Z,6.84
2023-01-15T07:53:24.067Z,6.80
2023-01-15T07:54:23.826Z,6.81
2023-01-15T07:55:24.065Z,6.79
2023-01-15T07:56:23.833Z,6.77
2023-01-15T07:57:44.132Z,6.74
2023-01-15T07:58:23.854Z,6.73
2023-01-15T07:59:23.592Z,6.71
2023-01-15T08:00:23.885Z,6.70
2023-01-15T08:01:23.650Z,6.67
2023-01-15T08:02:23.873Z,6.67
2023-01-15T08:03:23.612Z,6.64
2023-01-15T08:04:23.873Z,6.66
2023-01-15T08:05:23.608Z,6.64
2023-01-15T08:06:23.882Z,6.62
2023-01-15T08:07:43.628Z,6.64
2023-01-15T08:08:23.892Z,6.62
2023-01-15T08:09:23.621Z,6.59
2023-01-15T08:10:23.874Z,6.58
2023-01-15T08:11:23.634Z,6.59
2023-01-15T08:12:23.884Z,6.59
2023-01-15T08:13:23.621Z,6.56
2023-01-15T08:14:24.950Z,6.56
2023-01-15T08:15:24.409Z,6.55
2023-01-15T08:16:25.211Z,6.54
2023-01-15T08:17:43.903Z,6.54
2023-01-15T08:18:25.282Z,6.54
2023-01-15T08:19:25.059Z,6.52
2023-01-15T08:20:24.458Z,6.49
2023-01-15T08:21:24.411Z,6.48
2023-01-15T08:22:24.969Z,6.48
2023-01-15T08:23:25.271Z,6.46
2023-01-15T08:24:25.070Z,6.46
2023-01-15T08:25:24.484Z,6.46
2023-01-15T08:26:25.446Z,6.46
2023-01-15T08:27:43.530Z,6.46
2023-01-15T08:28:25.277Z,6.44
2023-01-15T08:29:24.603Z,6.46
2023-01-15T08:30:24.969Z,6.49
2023-01-15T08:31:24.533Z,6.52
2023-01-15T08:32:24.601Z,6.55
2023-01-15T08:33:24.381Z,6.58
2023-01-15T08:34:25.228Z,6.62
2023-01-15T08:35:25.031Z,6.66
2023-01-15T08:36:24.287Z,6.70
2023-01-15T08:37:43.624Z,6.74
2023-01-15T08:38:24.867Z,6.76
2023-01-15T08:39:23.920Z,6.77
2023-01-15T08:40:25.003Z,6.81
2023-01-15T08:41:24.783Z,6.85
2023-01-15T08:42:25.100Z,6.88
2023-01-15T08:43:24.928Z,6.88
2023-01-15T08:44:23.926Z,6.91
2023-01-15T08:45:23.938Z,6.94
2023-01-15T08:46:24.932Z,6.98
2023-01-15T08:47:43.217Z,7.05
2023-01-15T08:48:24.445Z,7.10
2023-01-15T08:49:24.742Z,7.42
2023-01-15T08:50:23.927Z,7.92
2023-01-15T08:51:23.936Z,8.37
2023-01-15T08:52:24.641Z,8.73
2023-01-15T08:53:24.158Z,9.17
2023-01-15T08:54:24.803Z,9.38
2023-01-15T08:55:24.565Z,9.69
2023-01-15T08:56:24.901Z,9.96
2023-01-15T08:57:43.216Z,10.47
2023-01-15T08:58:24.984Z,10.68
2023-01-15T08:59:24.822Z,10.91
2023-01-15T09:00:23.159Z,11.33
2023-01-15T09:01:23.490Z,11.36
2023-01-15T09:02:23.174Z,11.46
2023-01-15T09:03:23.419Z,11.54
2023-01-15T09:04:23.214Z,11.61
2023-01-15T09:05:22.955Z,11.61
2023-01-15T09:06:23.214Z,11.65
2023-01-15T09:07:44.518Z,11.39
2023-01-15T09:08:23.299Z,11.43
2023-01-15T09:09:23.020Z,11.69
2023-01-15T09:10:23.354Z,11.80
2023-01-15T09:11:23.026Z,11.91
2023-01-15T09:12:23.310Z,12.16
2023-01-15T09:13:23.073Z,12.32
2023-01-15T09:14:58.189Z,12.60
2023-01-15T09:15:23.308Z,12.85
2023-01-15T09:16:23.072Z,12.95
2023-01-15T09:17:44.406Z,13.36
2023-01-15T09:18:24.718Z,13.54
2023-01-15T09:19:23.993Z,13.64
2023-01-15T09:20:23.936Z,13.44
2023-01-15T09:21:24.625Z,13.05
2023-01-15T09:22:24.422Z,12.67
2023-01-15T09:23:24.255Z,12.54
2023-01-15T09:24:24.582Z,12.34
2023-01-15T09:25:23.437Z,12.19
2023-01-15T09:26:23.433Z,12.31
2023-01-15T09:27:42.999Z,12.64
2023-01-15T09:28:24.222Z,12.67
2023-01-15T09:29:23.739Z,12.42
2023-01-15T09:30:24.385Z,12.23
2023-01-15T09:31:24.178Z,11.69
2023-01-15T09:32:23.448Z,11.65
2023-01-15T09:33:24.290Z,11.46
2023-01-15T09:34:24.577Z,11.46
2023-01-15T09:35:24.397Z,11.69
2023-01-15T09:36:24.188Z,11.95
2023-01-15T09:37:42.218Z,11.52
2023-01-15T09:38:23.553Z,11.35
2023-01-15T09:39:23.901Z,11.07
2023-01-15T09:40:24.179Z,10.86
2023-01-15T09:41:24.484Z,10.97
2023-01-15T09:42:23.809Z,11.07
2023-01-15T09:43:23.466Z,11.04
2023-01-15T09:44:23.637Z,10.86
2023-01-15T09:45:24.281Z,10.82
2023-01-15T09:46:24.102Z,10.84
2023-01-15T09:47:42.966Z,10.92
2023-01-15T09:48:24.170Z,10.52
2023-01-15T09:49:23.492Z,10.18
2023-01-15T09:50:24.282Z,10.27
2023-01-15T09:51:23.619Z,10.09
2023-01-15T09:52:24.392Z,9.89
2023-01-15T09:53:24.232Z,9.69
2023-01-15T09:54:23.458Z,9.51
2023-01-15T09:55:24.379Z,9.39
2023-01-15T09:56:24.172Z,9.46
2023-01-15T09:57:42.503Z,9.66
2023-01-15T09:58:24.278Z,9.51
2023-01-15T09:59:24.088Z,9.31
2023-01-15T10:00:23.423Z,9.17
2023-01-15T10:01:24.279Z,9.05
2023-01-15T10:02:24.029Z,8.89
2023-01-15T10:03:23.944Z,8.74
2023-01-15T10:04:24.157Z,8.63
2023-01-15T10:05:23.971Z,8.59
2023-01-15T10:06:23.470Z,8.56
2023-01-15T10:07:42.610Z,8.62
2023-01-15T10:08:23.827Z,8.68
2023-01-15T10:09:23.647Z,9.21
2023-01-15T10:10:23.158Z,9.97
2023-01-15T10:11:23.019Z,10.02
2023-01-15T10:12:24.088Z,10.20
2023-01-15T10:13:22.518Z,9.96
2023-01-15T10:14:23.725Z,9.72
2023-01-15T10:15:24.037Z,9.54
2023-01-15T10:16:23.379Z,9.36
2023-01-15T10:17:42.821Z,9.33
2023-01-15T10:18:23.918Z,9.20
2023-01-15T10:19:23.747Z,8.99
2023-01-15T10:20:23.602Z,8.91
2023-01-15T10:21:22.447Z,8.81
2023-01-15T10:22:22.188Z,8.77
2023-01-15T10:23:22.470Z,8.79
2023-01-15T10:24:22.222Z,9.10
2023-01-15T10:25:22.478Z,9.15
2023-01-15T10:26:22.215Z,9.02
2023-01-15T10:27:43.488Z,8.84
2023-01-15T10:28:22.278Z,8.83
2023-01-15T10:29:27.860Z,8.89
2023-01-15T10:30:22.133Z,8.99
2023-01-15T10:31:22.435Z,9.18
2023-01-15T10:32:22.136Z,9.78
2023-01-15T10:33:22.388Z,10.92
2023-01-15T10:35:49.980Z,12.17
2023-01-15T10:35:54.857Z,13.66
2023-01-15T10:36:55.920Z,13.10
2023-01-15T10:38:15.466Z,12.05
2023-01-15T10:38:57.182Z,12.04
2023-01-15T10:39:56.975Z,11.76
2023-01-15T10:40:55.994Z,11.98
2023-01-15T10:42:02.085Z,13.01
2023-01-15T10:42:56.043Z,13.67
2023-01-15T10:43:55.648Z,13.87
2023-01-15T10:44:56.400Z,13.81
2023-01-15T10:45:55.663Z,12.70
2023-01-15T10:46:57.669Z,11.99
2023-01-15T10:48:17.191Z,11.09
2023-01-15T10:48:55.545Z,10.76
2023-01-15T10:49:55.556Z,10.51
2023-01-15T10:51:05.906Z,10.53
2023-01-15T10:51:55.281Z,11.49
2023-01-15T10:52:55.540Z,11.15
2023-01-15T10:53:55.273Z,10.66
2023-01-15T10:55:07.382Z,10.67
2023-01-15T10:55:55.184Z,11.91
2023-01-15T10:57:28.480Z,12.75
2023-01-15T10:58:16.015Z,13.01
2023-01-15T10:59:00.045Z,13.23
2023-01-15T10:59:55.291Z,12.77
2023-01-15T11:01:43.818Z,13.22
2023-01-15T11:02:38.947Z,14.12
2023-01-15T11:02:54.612Z,14.60
2023-01-15T11:03:56.307Z,13.49
2023-01-15T11:04:55.056Z,13.39
2023-01-15T11:05:56.819Z,13.25
2023-01-15T11:06:55.130Z,12.78
2023-01-15T11:09:02.268Z,12.89
2023-01-15T11:09:45.181Z,13.03
2023-01-15T11:10:24.401Z,14.14
2023-01-15T11:11:18.156Z,15.01
2023-01-15T11:11:54.951Z,14.69
2023-01-15T11:14:55.231Z,14.15
2023-01-15T11:15:00.047Z,15.53
2023-01-15T11:16:02.314Z,14.78
2023-01-15T11:17:02.080Z,13.66
2023-01-15T11:18:10.063Z,13.03
2023-01-15T11:19:28.002Z,12.75
2023-01-15T11:20:16.169Z,13.20
2023-01-15T11:21:10.568Z,13.33
2023-01-15T11:22:02.340Z,13.77
2023-01-15T11:23:02.110Z,12.92
2023-01-15T11:24:15.691Z,13.66
2023-01-15T11:25:00.756Z,13.39
2023-01-15T11:26:01.940Z,13.46
2023-01-15T11:27:02.215Z,12.97
2023-01-15T11:28:02.992Z,13.15
2023-01-15T11:29:20.888Z,13.39
2023-01-15T11:30:02.077Z,13.14
2023-01-15T11:31:02.136Z,12.54
2023-01-15T11:32:02.096Z,12.68
2023-01-15T11:33:01.865Z,11.98
2023-01-15T11:34:00.762Z,11.32
2023-01-15T11:35:01.508Z,11.37
2023-01-15T11:36:01.730Z,11.57
2023-01-15T11:37:01.023Z,11.14
2023-01-15T11:38:01.275Z,10.79
2023-01-15T11:39:20.955Z,10.40
2023-01-15T11:40:01.825Z,10.89
2023-01-15T11:41:00.743Z,11.18
2023-01-15T11:42:01.955Z,10.94
2023-01-15T11:43:00.782Z,10.81
2023-01-15T11:44:00.552Z,10.71
2023-01-15T11:45:13.311Z,10.86
2023-01-15T11:46:47.573Z,11.85
2023-01-15T11:47:17.351Z,13.14
2023-01-15T11:48:00.914Z,12.87
2023-01-15T11:49:21.106Z,11.90
2023-01-15T11:50:00.281Z,11.46
2023-01-15T11:51:00.501Z,10.96
2023-01-15T11:52:01.747Z,11.85
2023-01-15T11:53:27.567Z,12.96
2023-01-15T11:54:01.788Z,13.78
2023-01-15T11:55:01.022Z,12.90
2023-01-15T11:56:01.907Z,12.07
2023-01-15T11:57:01.723Z,11.42
2023-01-15T11:58:01.240Z,11.03
2023-01-15T11:59:21.816Z,10.47
2023-01-15T12:00:01.579Z,10.27
2023-01-15T12:01:01.047Z,10.04
2023-01-15T12:02:01.688Z,9.84
2023-01-15T12:03:01.989Z,9.68
2023-01-15T12:04:01.928Z,9.57
2023-01-15T12:05:01.635Z,9.56
2023-01-15T12:06:01.932Z,9.51
2023-01-15T12:07:00.942Z,9.40
2023-01-15T12:08:01.622Z,9.32
2023-01-15T12:09:21.443Z,9.33
2023-01-15T12:10:01.773Z,9.50
2023-01-15T12:11:10.887Z,9.57
2023-01-15T12:12:02.369Z,10.08
2023-01-15T12:13:01.163Z,10.53
2023-01-15T12:14:01.498Z,10.27
2023-01-15T12:15:01.751Z,10.22
2023-01-15T12:16:33.179Z,10.89
2023-01-15T12:17:01.814Z,11.43
2023-01-15T12:18:01.039Z,11.49
2023-01-15T12:19:21.447Z,10.82
2023-01-15T12:20:01.831Z,10.55
2023-01-15T12:21:01.622Z,10.20
2023-01-15T12:22:00.022Z,9.99
2023-01-15T12:23:00.531Z,9.81
2023-01-15T12:24:00.557Z,9.71
2023-01-15T12:25:01.366Z,9.58
2023-01-15T12:26:01.649Z,9.47
2023-01-15T12:27:01.434Z,9.36
2023-01-15T12:28:01.766Z,9.31
2023-01-15T12:29:20.585Z,9.20
2023-01-15T12:30:01.440Z,9.17
2023-01-15T12:31:01.786Z,9.17
2023-01-15T12:32:01.642Z,9.18
2023-01-15T12:33:01.404Z,9.13
2023-01-15T12:34:01.808Z,9.04
2023-01-15T12:35:00.563Z,9.02
2023-01-15T12:36:01.051Z,8.99
2023-01-15T12:37:01.399Z,8.95
2023-01-15T12:38:01.647Z,8.89
2023-01-15T12:39:20.287Z,8.87
2023-01-15T12:40:01.285Z,8.84
2023-01-15T12:41:00.565Z,8.86
2023-01-15T12:42:01.436Z,8.84
2023-01-15T12:43:01.302Z,8.80
2023-01-15T12:44:01.658Z,8.77
2023-01-15T12:45:01.585Z,8.77
2023-01-15T12:46:00.856Z,8.76
2023-01-15T12:47:00.558Z,8.79
2023-01-15T12:48:01.520Z,8.80
2023-01-15T12:49:19.868Z,8.89
2023-01-15T12:50:00.642Z,8.94
2023-01-15T12:51:01.473Z,8.96
2023-01-15T12:52:00.077Z,8.94
2023-01-15T12:53:00.565Z,8.91
2023-01-15T12:54:01.470Z,8.89
2023-01-15T12:55:01.333Z,8.91
2023-01-15T12:56:01.172Z,8.99
2023-01-15T12:57:02.700Z,9.10
2023-01-15T12:58:01.352Z,9.14
2023-01-15T12:59:19.693Z,9.17
2023-01-15T13:00:01.481Z,9.21
2023-01-15T13:01:00.863Z,9.26
2023-01-15T13:02:01.231Z,9.28
2023-01-15T13:03:00.485Z,9.29
2023-01-15T13:04:00.895Z,9.29
2023-01-15T13:05:00.713Z,9.28
2023-01-15T13:06:01.048Z,9.24
2023-01-15T13:07:00.583Z,9.20
2023-01-15T13:07:59.803Z,9.17
2023-01-15T13:09:19.567Z,9.11
2023-01-15T13:10:01.334Z,9.05
2023-01-15T13:10:59.654Z,9.04
2023-01-15T13:11:59.383Z,9.02
2023-01-15T13:12:59.805Z,9.01
2023-01-15T13:13:59.427Z,8.99
2023-01-15T13:14:59.736Z,9.01